Time;durP1;ratioP1;P1;durP2;ratioP2;P2;SDS_P1;SDS_P2;PMS_P1;PMS_P2;Temp;Humidity;BMP_temperature;BMP_pressure;BME280_temperature;BME280_humidity;BME280_pressure;Samples;Min_cycle;Max_cycle;Signal;HPM_P1;HPM_P2
2021/05/17 00:01:06;;;;;;;3.27;0.70;;;10.90;99.90;;;;;;5064311;28;20706;-86
2021/05/17 00:03:35;;;;;;;0.97;0.50;;;11.00;99.90;;;;;;5066796;28;20674;-86
2021/05/17 00:06:02;;;;;;;0.80;0.57;;;11.00;99.90;;;;;;5059539;28;20655;-86
2021/05/17 00:08:28;;;;;;;1.17;0.67;;;10.90;99.90;;;;;;5065191;28;20629;-88
2021/05/17 00:10:56;;;;;;;0.93;0.50;;;10.90;99.90;;;;;;5065920;28;20679;-88
2021/05/17 00:13:22;;;;;;;1.07;0.60;;;10.90;99.90;;;;;;5067125;28;21272;-88
2021/05/17 00:15:49;;;;;;;1.10;0.60;;;10.90;99.90;;;;;;5072959;28;20625;-88
2021/05/17 00:18:18;;;;;;;1.30;0.60;;;10.90;99.90;;;;;;5069104;28;20645;-86
2021/05/17 00:20:47;;;;;;;1.47;0.60;;;10.90;99.90;;;;;;5082704;28;20653;-86
2021/05/17 00:23:14;;;;;;;1.60;0.70;;;10.90;99.90;;;;;;5089860;28;20666;-87
2021/05/17 00:25:41;;;;;;;1.23;0.57;;;10.90;99.90;;;;;;5086329;28;20636;-87
2021/05/17 00:28:08;;;;;;;2.10;0.80;;;10.80;99.90;;;;;;5076115;28;20656;-86
2021/05/17 00:30:35;;;;;;;1.27;0.60;;;10.80;99.90;;;;;;5068964;28;20657;-88
2021/05/17 00:33:02;;;;;;;1.37;0.50;;;10.80;99.90;;;;;;5070663;28;20694;-87
2021/05/17 00:35:30;;;;;;;1.70;0.77;;;10.70;99.90;;;;;;5064358;28;20645;-87
2021/05/17 00:37:57;;;;;;;1.57;0.50;;;10.70;99.90;;;;;;5064155;28;20620;-88
2021/05/17 00:40:25;;;;;;;0.70;0.57;;;10.70;99.90;;;;;;5064798;28;20664;-88
2021/05/17 00:42:52;;;;;;;1.20;0.60;;;10.70;99.90;;;;;;5062697;28;20673;-86
2021/05/17 00:45:21;;;;;;;1.40;0.50;;;10.70;99.90;;;;;;5064302;28;20976;-86
2021/05/17 00:47:50;;;;;;;2.13;0.90;;;10.70;99.90;;;;;;5064063;28;21238;-87
2021/05/17 00:50:19;;;;;;;0.60;0.50;;;10.70;99.90;;;;;;5064248;28;20648;-87
2021/05/17 00:52:47;;;;;;;1.37;0.57;;;10.70;99.90;;;;;;5062071;28;21063;-86
2021/05/17 00:55:17;;;;;;;2.73;0.70;;;10.80;99.90;;;;;;5062681;28;20617;-87
2021/05/17 00:57:43;;;;;;;1.80;0.60;;;10.80;99.90;;;;;;5058204;28;20707;-86
2021/05/17 01:00:13;;;;;;;0.87;0.53;;;10.80;99.90;;;;;;5063006;28;20647;-88
2021/05/17 01:02:39;;;;;;;2.60;0.90;;;10.80;99.90;;;;;;5062982;28;21243;-86
2021/05/17 01:05:07;;;;;;;0.70;0.43;;;10.70;99.90;;;;;;5062010;28;20646;-86
2021/05/17 01:07:35;;;;;;;0.70;0.50;;;10.80;99.90;;;;;;5062578;28;20636;-86
2021/05/17 01:10:04;;;;;;;1.13;0.50;;;10.80;99.90;;;;;;5063163;28;20652;-87
2021/05/17 01:12:33;;;;;;;1.57;0.60;;;10.80;99.90;;;;;;5059148;28;20629;-89
2021/05/17 01:15:00;;;;;;;1.87;0.60;;;10.80;99.90;;;;;;5065243;28;20714;-87
2021/05/17 01:17:28;;;;;;;1.70;0.60;;;10.70;99.90;;;;;;5064133;28;20686;-87
2021/05/17 01:20:05;;;;;;;1.43;0.60;;;10.70;99.90;;;;;;5064251;28;20641;-87
2021/05/17 01:22:38;;;;;;;0.87;0.70;;;10.70;99.90;;;;;;5064594;28;20586;-88
2021/05/17 01:25:08;;;;;;;1.57;0.77;;;10.70;99.90;;;;;;5068785;28;21330;-88
2021/05/17 01:27:36;;;;;;;1.37;0.60;;;10.70;99.90;;;;;;5067243;28;20652;-86
2021/05/17 01:30:04;;;;;;;0.90;0.50;;;10.70;99.90;;;;;;5068328;28;20679;-85
2021/05/17 01:32:31;;;;;;;1.23;0.50;;;10.60;99.90;;;;;;5060639;28;20976;-86
2021/05/17 01:34:59;;;;;;;1.00;0.80;;;10.60;99.90;;;;;;5064997;28;20622;-87
2021/05/17 01:37:29;;;;;;;1.77;0.67;;;10.60;99.90;;;;;;5062113;28;20633;-85
2021/05/17 01:39:56;;;;;;;0.93;0.77;;;10.60;99.90;;;;;;5069896;28;20662;-86
2021/05/17 01:42:24;;;;;;;1.13;0.60;;;10.60;99.90;;;;;;5068578;28;20625;-86
2021/05/17 01:44:53;;;;;;;0.93;0.50;;;10.50;99.90;;;;;;5093433;28;21524;-84
2021/05/17 01:47:22;;;;;;;1.83;0.80;;;10.50;99.90;;;;;;5062072;28;20652;-85
2021/05/17 01:49:51;;;;;;;0.83;0.53;;;10.40;99.90;;;;;;5060855;28;20677;-86
2021/05/17 01:52:19;;;;;;;3.43;0.67;;;10.40;99.90;;;;;;5064558;28;20632;-85
2021/05/17 01:54:48;;;;;;;1.40;0.80;;;10.40;99.90;;;;;;5062419;28;20625;-85
2021/05/17 01:57:15;;;;;;;1.20;0.60;;;10.40;99.90;;;;;;5063837;28;20617;-85
2021/05/17 01:59:43;;;;;;;1.90;0.60;;;10.40;99.90;;;;;;5063205;28;20676;-85
2021/05/17 02:02:10;;;;;;;0.87;0.60;;;10.40;99.90;;;;;;5065467;28;20735;-85
2021/05/17 02:04:37;;;;;;;1.30;0.60;;;10.40;99.90;;;;;;5069394;28;20695;-85
2021/05/17 02:07:04;;;;;;;1.07;0.70;;;10.40;99.90;;;;;;5081424;28;20651;-86
2021/05/17 02:09:32;;;;;;;1.23;0.60;;;10.40;99.90;;;;;;5074169;28;20667;-86
2021/05/17 02:12:00;;;;;;;0.90;0.60;;;10.30;99.90;;;;;;5063974;28;20637;-87
2021/05/17 02:14:28;;;;;;;1.63;0.70;;;10.30;99.90;;;;;;5068506;28;20656;-86
2021/05/17 02:16:57;;;;;;;1.33;0.60;;;10.30;99.90;;;;;;5067707;28;20977;-86
2021/05/17 02:19:24;;;;;;;0.50;0.40;;;10.30;99.90;;;;;;5067850;28;20624;-87
2021/05/17 02:21:51;;;;;;;2.00;0.53;;;10.30;99.90;;;;;;5067432;28;20668;-85
2021/05/17 02:24:18;;;;;;;1.07;0.43;;;10.30;99.90;;;;;;5069656;28;20664;-85
2021/05/17 02:26:44;;;;;;;2.33;0.93;;;10.20;99.90;;;;;;5064647;28;20682;-85
2021/05/17 02:29:12;;;;;;;1.57;0.70;;;10.20;99.90;;;;;;5060186;28;20647;-85
2021/05/17 02:31:39;;;;;;;3.00;0.90;;;10.10;99.90;;;;;;5065493;28;20629;-88
2021/05/17 02:34:07;;;;;;;1.43;0.67;;;10.10;99.90;;;;;;5077181;28;20931;-87
2021/05/17 02:36:34;;;;;;;1.90;0.57;;;10.10;99.90;;;;;;5072277;28;20654;-85
2021/05/17 02:39:01;;;;;;;1.30;0.50;;;10.10;99.90;;;;;;5071620;28;20624;-88
2021/05/17 02:41:29;;;;;;;1.37;0.60;;;10.00;99.90;;;;;;5070939;28;21007;-86
2021/05/17 02:43:56;;;;;;;1.60;0.50;;;10.00;99.90;;;;;;5070357;28;20652;-86
2021/05/17 02:46:23;;;;;;;2.07;0.70;;;10.00;99.90;;;;;;5072042;28;21242;-87
2021/05/17 02:48:50;;;;;;;1.47;0.60;;;10.00;99.90;;;;;;5068241;28;20643;-87
2021/05/17 02:51:18;;;;;;;2.43;0.70;;;10.00;99.90;;;;;;5064381;28;20675;-86
2021/05/17 02:54:10;;;;;;;1.43;0.50;;;10.00;99.90;;;;;;5060809;28;20629;-87
2021/05/17 02:57:02;;;;;;;0.80;0.50;;;10.00;99.90;;;;;;5039175;28;20643;-88
2021/05/17 02:59:43;;;;;;;1.30;0.43;;;10.00;99.90;;;;;;5066892;28;20639;-88
2021/05/17 03:02:17;;;;;;;1.60;0.93;;;10.00;99.90;;;;;;5063134;28;21187;-87
2021/05/17 03:04:47;;;;;;;6.40;1.17;;;10.00;99.90;;;;;;5078445;28;20669;-88
2021/05/17 03:07:15;;;;;;;1.60;0.70;;;10.00;99.90;;;;;;5079286;28;20628;-89
2021/05/17 03:09:45;;;;;;;1.47;0.70;;;10.10;99.90;;;;;;5069366;28;20760;-88
2021/05/17 03:12:12;;;;;;;0.70;0.60;;;10.10;99.90;;;;;;5071951;28;21192;-89
2021/05/17 03:14:42;;;;;;;1.20;0.60;;;10.10;99.90;;;;;;5072225;28;20655;-89
2021/05/17 03:17:10;;;;;;;1.10;0.30;;;10.10;99.90;;;;;;5069623;28;20645;-88
2021/05/17 03:19:38;;;;;;;1.80;0.50;;;10.20;99.90;;;;;;5069736;28;20687;-88
2021/05/17 03:22:06;;;;;;;1.07;0.67;;;10.20;99.90;;;;;;5073821;28;20627;-87
2021/05/17 03:24:35;;;;;;;1.03;0.43;;;10.20;99.90;;;;;;5069954;28;20668;-88
2021/05/17 03:27:18;;;;;;;1.50;0.60;;;10.20;99.90;;;;;;5065682;28;20637;-87
2021/05/17 03:29:45;;;;;;;1.73;0.60;;;10.20;99.90;;;;;;5067537;28;20705;-88
2021/05/17 03:32:11;;;;;;;1.73;0.50;;;10.10;99.90;;;;;;5068753;28;21313;-88
2021/05/17 03:34:38;;;;;;;0.70;0.50;;;10.10;99.90;;;;;;5067406;28;21558;-86
2021/05/17 03:37:05;;;;;;;0.70;0.40;;;10.10;99.90;;;;;;5069338;28;20701;-86
2021/05/17 03:39:33;;;;;;;2.30;1.13;;;10.10;99.90;;;;;;5073513;28;20686;-87
2021/05/17 03:42:01;;;;;;;1.40;0.63;;;10.10;99.90;;;;;;5077566;28;20736;-88
2021/05/17 03:44:29;;;;;;;1.30;0.60;;;10.10;99.90;;;;;;5075470;28;20698;-87
2021/05/17 03:46:55;;;;;;;1.10;0.40;;;10.00;99.90;;;;;;5075255;28;20647;-87
2021/05/17 03:49:24;;;;;;;1.03;0.60;;;10.10;99.90;;;;;;5083638;28;22123;-87
2021/05/17 03:51:54;;;;;;;1.10;0.50;;;10.10;99.90;;;;;;5095112;28;20701;-87
2021/05/17 03:54:22;;;;;;;1.23;0.37;;;10.10;99.90;;;;;;5080059;28;20612;-89
2021/05/17 03:56:49;;;;;;;0.93;0.60;;;10.10;99.90;;;;;;5089172;28;20667;-87
2021/05/17 03:59:26;;;;;;;0.50;0.40;;;10.10;99.90;;;;;;5081772;28;20618;-87
2021/05/17 04:01:53;;;;;;;0.80;0.50;;;10.10;99.90;;;;;;5090609;28;20620;-87
2021/05/17 04:04:23;;;;;;;0.60;0.43;;;10.20;99.90;;;;;;5086764;28;20642;-87
2021/05/17 04:06:55;;;;;;;1.63;0.60;;;10.20;99.90;;;;;;5089592;28;20620;-86
2021/05/17 04:14:53;;;;;;;2.20;0.70;;;10.30;99.90;;;;;;5088284;28;20604;-88
2021/05/17 04:17:19;;;;;;;4.23;0.63;;;10.30;99.90;;;;;;5090559;28;20595;-88
2021/05/17 04:19:45;;;;;;;1.00;0.70;;;10.40;99.90;;;;;;5086629;28;20649;-88
2021/05/17 04:22:12;;;;;;;1.20;0.70;;;10.40;99.90;;;;;;5081741;28;20617;-85
2021/05/17 04:24:38;;;;;;;1.60;0.83;;;10.40;99.90;;;;;;5079523;28;20670;-86
2021/05/17 04:27:05;;;;;;;2.13;0.70;;;10.40;99.90;;;;;;5090119;28;20616;-86
2021/05/17 04:29:32;;;;;;;0.90;0.70;;;10.40;99.90;;;;;;5076176;28;20653;-85
2021/05/17 04:31:59;;;;;;;1.07;0.60;;;10.50;99.90;;;;;;5089348;28;20652;-87
2021/05/17 04:34:27;;;;;;;2.70;0.87;;;10.50;99.90;;;;;;5090470;28;20617;-85
2021/05/17 04:36:56;;;;;;;1.53;0.90;;;10.50;99.90;;;;;;5067821;28;20649;-86
2021/05/17 04:39:22;;;;;;;2.13;0.77;;;10.60;99.90;;;;;;5069742;28;20701;-86
2021/05/17 04:41:48;;;;;;;1.80;1.07;;;10.70;99.90;;;;;;5063158;28;20628;-87
2021/05/17 04:44:15;;;;;;;2.20;1.37;;;10.60;99.90;;;;;;5064747;28;20746;-86
2021/05/17 04:46:47;;;;;;;1.90;0.63;;;10.70;99.90;;;;;;5068161;28;20829;-87
2021/05/17 04:49:21;;;;;;;0.80;0.70;;;10.70;99.90;;;;;;5069023;28;20624;-87
2021/05/17 04:51:47;;;;;;;1.33;0.90;;;10.80;99.90;;;;;;5071811;28;20624;-88
2021/05/17 04:54:13;;;;;;;4.23;0.70;;;10.80;99.90;;;;;;5069880;28;21221;-88
2021/05/17 04:56:40;;;;;;;2.20;0.70;;;10.90;99.90;;;;;;5072451;28;20714;-88
2021/05/17 04:59:06;;;;;;;1.70;0.70;;;10.80;99.90;;;;;;5074651;28;20654;-88
2021/05/17 05:01:32;;;;;;;2.60;0.77;;;10.80;99.90;;;;;;5076526;28;20633;-89
2021/05/17 05:04:00;;;;;;;1.30;0.67;;;10.90;99.90;;;;;;5084316;28;20641;-88
2021/05/17 05:06:26;;;;;;;5.63;1.50;;;10.90;99.90;;;;;;5076373;28;20808;-90
2021/05/17 05:08:52;;;;;;;1.00;0.60;;;10.90;99.90;;;;;;5072721;28;21092;-90
2021/05/17 05:11:19;;;;;;;2.80;0.60;;;10.90;99.90;;;;;;5067722;28;20609;-89
2021/05/17 05:13:45;;;;;;;1.60;0.80;;;10.90;99.90;;;;;;5067083;28;20609;-90
2021/05/17 05:16:11;;;;;;;2.50;0.73;;;10.80;99.90;;;;;;5070661;28;20621;-89
2021/05/17 05:21:22;;;;;;;0.87;0.50;;;10.70;99.90;;;;;;5068363;28;20687;-90
2021/05/17 05:23:50;;;;;;;6.17;0.97;;;10.70;99.90;;;;;;5067845;28;20653;-88
2021/05/17 05:29:11;;;;;;;1.30;0.63;;;10.90;99.90;;;;;;5065191;28;20669;-87
2021/05/17 05:31:43;;;;;;;1.83;0.90;;;11.00;99.90;;;;;;5065252;28;20635;-88
2021/05/17 05:34:09;;;;;;;1.63;0.70;;;11.10;99.90;;;;;;5066730;28;20625;-88
2021/05/17 05:36:38;;;;;;;2.43;0.80;;;11.20;99.90;;;;;;5066713;28;21207;-88
2021/05/17 05:39:05;;;;;;;0.90;0.50;;;11.40;99.90;;;;;;5066856;28;20645;-87
2021/05/17 05:41:32;;;;;;;1.07;0.47;;;11.70;99.90;;;;;;5065129;28;21189;-87
2021/05/17 05:43:58;;;;;;;1.50;0.50;;;11.70;99.90;;;;;;5068915;28;20661;-87
2021/05/17 05:46:25;;;;;;;1.50;0.60;;;11.70;99.90;;;;;;5071129;28;20655;-87
2021/05/17 05:48:57;;;;;;;1.63;0.73;;;11.70;99.90;;;;;;5088760;28;20628;-88
2021/05/17 05:51:28;;;;;;;2.30;0.57;;;11.60;99.90;;;;;;5086133;28;20666;-88
2021/05/17 05:53:59;;;;;;;1.87;0.70;;;11.60;99.90;;;;;;5071784;28;20629;-89
2021/05/17 05:56:28;;;;;;;2.00;0.70;;;11.60;99.90;;;;;;5068723;28;20721;-89
2021/05/17 05:58:56;;;;;;;1.80;0.40;;;11.70;99.90;;;;;;5072653;28;20689;-89
2021/05/17 06:01:23;;;;;;;0.60;0.40;;;11.80;99.90;;;;;;5077714;27;20663;-87
2021/05/17 06:03:49;;;;;;;1.90;0.50;;;11.80;99.90;;;;;;5074682;28;20692;-89
2021/05/17 06:06:24;;;;;;;0.97;0.60;;;11.80;99.90;;;;;;5074080;28;20656;-89
2021/05/17 06:08:50;;;;;;;5.80;0.47;;;11.80;99.90;;;;;;5069434;28;20626;-90
2021/05/17 06:11:21;;;;;;;1.30;0.37;;;11.80;99.90;;;;;;5090473;28;20667;-89
2021/05/17 06:13:50;;;;;;;1.47;0.40;;;11.70;99.90;;;;;;5087687;28;21022;-88
2021/05/17 06:16:17;;;;;;;2.27;0.97;;;11.80;99.90;;;;;;5074942;28;20658;-87
2021/05/17 06:18:45;;;;;;;0.80;0.50;;;11.80;99.90;;;;;;5089963;28;20628;-88
2021/05/17 06:21:12;;;;;;;1.20;0.33;;;11.80;99.90;;;;;;5086386;28;20621;-86
2021/05/17 06:23:40;;;;;;;1.43;0.40;;;11.80;99.90;;;;;;5076686;28;20720;-87
2021/05/17 06:26:07;;;;;;;0.50;0.40;;;11.90;99.90;;;;;;5077086;28;20647;-87
2021/05/17 06:28:35;;;;;;;0.80;0.70;;;12.10;99.90;;;;;;5077578;28;20664;-87
2021/05/17 06:31:04;;;;;;;5.67;5.17;;;12.10;99.90;;;;;;5089453;28;20695;-88
2021/05/17 06:33:31;;;;;;;2.00;1.80;;;12.30;99.90;;;;;;5078597;28;20616;-87
2021/05/17 06:35:58;;;;;;;0.70;0.40;;;12.40;99.90;;;;;;5076175;28;20694;-88
2021/05/17 06:38:25;;;;;;;1.30;0.40;;;12.50;99.90;;;;;;5076821;28;21000;-87
2021/05/17 06:40:53;;;;;;;1.83;0.80;;;12.50;99.90;;;;;;5072497;28;20616;-86
2021/05/17 06:43:19;;;;;;;0.97;0.63;;;12.50;99.90;;;;;;5070930;28;20768;-86
2021/05/17 06:45:47;;;;;;;2.90;1.50;;;12.50;99.90;;;;;;5067783;28;20651;-87
2021/05/17 06:48:14;;;;;;;1.90;0.87;;;12.60;99.90;;;;;;5072625;28;20620;-87
2021/05/17 06:50:41;;;;;;;1.67;0.40;;;12.60;99.90;;;;;;5074781;28;20631;-86
2021/05/17 06:53:07;;;;;;;1.23;0.50;;;12.50;99.90;;;;;;5072512;28;20624;-86
2021/05/17 06:55:40;;;;;;;2.07;0.70;;;12.50;99.90;;;;;;5073375;28;20652;-87
2021/05/17 06:58:14;;;;;;;0.80;0.70;;;12.60;99.90;;;;;;5069736;28;20647;-87
2021/05/17 07:00:41;;;;;;;2.50;0.77;;;12.60;99.90;;;;;;5067212;28;20693;-87
2021/05/17 07:03:10;;;;;;;0.60;0.50;;;12.50;99.90;;;;;;5072216;28;20722;-87
2021/05/17 07:05:38;;;;;;;3.47;0.80;;;12.50;99.90;;;;;;5066283;28;20661;-86
2021/05/17 07:13:34;;;;;;;1.20;0.60;;;12.60;99.90;;;;;;5066714;28;20576;-87
2021/05/17 07:16:00;;;;;;;1.00;0.50;;;12.50;99.90;;;;;;5067591;28;20632;-87
2021/05/17 07:18:28;;;;;;;1.43;0.60;;;12.50;99.90;;;;;;5072578;28;20620;-87
2021/05/17 07:23:42;;;;;;;3.27;0.93;;;12.60;99.90;;;;;;5077591;28;20704;-87
2021/05/17 07:26:12;;;;;;;2.77;0.60;;;12.70;99.90;;;;;;5074885;28;20693;-87
2021/05/17 07:28:39;;;;;;;1.57;0.60;;;12.90;99.90;;;;;;5072754;28;20675;-86
2021/05/17 07:31:09;;;;;;;1.10;0.80;;;13.00;99.90;;;;;;5067877;28;20620;-86
2021/05/17 07:33:40;;;;;;;1.83;0.90;;;12.90;99.90;;;;;;5067855;28;20707;-87
2021/05/17 07:36:07;;;;;;;1.37;0.90;;;12.70;99.90;;;;;;5068755;28;20643;-87
2021/05/17 07:38:35;;;;;;;1.10;0.60;;;12.90;99.90;;;;;;5067997;28;21084;-86
2021/05/17 07:41:03;;;;;;;0.90;0.53;;;12.90;99.90;;;;;;5066752;28;20625;-86
2021/05/17 07:43:30;;;;;;;1.33;0.90;;;12.90;99.90;;;;;;5070677;28;20748;-87
2021/05/17 07:45:57;;;;;;;2.03;1.57;;;12.90;99.90;;;;;;5065932;28;20652;-87
2021/05/17 07:48:23;;;;;;;2.40;1.10;;;13.00;99.90;;;;;;5068688;28;21024;-87
2021/05/17 07:50:52;;;;;;;1.73;0.93;;;13.30;99.90;;;;;;5065984;28;20632;-88
2021/05/17 07:53:18;;;;;;;1.80;0.50;;;13.60;99.90;;;;;;5062769;28;20648;-87
2021/05/17 07:55:48;;;;;;;2.17;0.87;;;13.70;99.90;;;;;;5063083;28;20652;-87
2021/05/17 07:58:15;;;;;;;1.47;0.60;;;13.70;99.90;;;;;;5061776;28;20637;-86
2021/05/17 08:00:41;;;;;;;1.73;0.70;;;13.80;99.90;;;;;;5064242;28;20648;-87
2021/05/17 08:03:07;;;;;;;1.07;0.57;;;13.90;99.90;;;;;;5061288;28;20622;-86
2021/05/17 08:05:35;;;;;;;0.83;0.60;;;13.90;99.90;;;;;;5066013;28;20668;-88
2021/05/17 08:08:02;;;;;;;2.60;0.70;;;14.10;99.90;;;;;;5069344;28;20635;-87
2021/05/17 08:10:29;;;;;;;0.80;0.73;;;14.30;99.90;;;;;;5062774;28;20624;-87
2021/05/17 08:12:55;;;;;;;2.60;0.50;;;14.20;99.90;;;;;;5065157;28;21188;-88
2021/05/17 08:15:22;;;;;;;1.70;0.60;;;14.20;99.90;;;;;;5071580;28;20640;-87
2021/05/17 08:17:49;;;;;;;1.43;0.50;;;14.10;99.90;;;;;;5067490;28;20759;-87
2021/05/17 08:20:15;;;;;;;0.80;0.60;;;14.10;99.90;;;;;;5069788;28;20653;-87
2021/05/17 08:22:42;;;;;;;1.53;0.60;;;14.10;99.90;;;;;;5066401;28;20644;-87
2021/05/17 08:25:11;;;;;;;0.80;0.33;;;14.10;99.90;;;;;;5066892;28;20676;-86
2021/05/17 08:27:37;;;;;;;2.73;0.50;;;13.80;99.90;;;;;;5062336;28;20633;-87
2021/05/17 08:30:06;;;;;;;1.37;0.60;;;13.90;99.90;;;;;;5063822;28;20678;-87
2021/05/17 08:32:32;;;;;;;0.90;0.70;;;14.20;99.90;;;;;;5062549;28;20645;-87
2021/05/17 08:34:59;;;;;;;2.33;0.53;;;14.40;99.90;;;;;;5063966;28;20664;-87
2021/05/17 08:37:25;;;;;;;1.70;1.07;;;14.00;99.90;;;;;;5058055;28;20649;-86
2021/05/17 08:39:51;;;;;;;1.80;0.90;;;14.10;99.90;;;;;;5059622;28;21306;-86
2021/05/17 08:42:19;;;;;;;1.03;0.60;;;14.30;99.90;;;;;;5061021;28;20677;-86
2021/05/17 08:44:46;;;;;;;1.03;0.50;;;14.40;99.90;;;;;;5064328;28;20678;-86
2021/05/17 08:47:12;;;;;;;2.80;0.43;;;14.50;99.90;;;;;;5062933;28;21325;-86
2021/05/17 08:49:40;;;;;;;0.87;0.63;;;14.40;99.90;;;;;;5053033;28;20837;-86
2021/05/17 08:52:07;;;;;;;1.53;0.50;;;14.50;99.90;;;;;;5062724;28;21010;-86
2021/05/17 08:54:36;;;;;;;1.70;0.60;;;14.60;99.40;;;;;;5060297;28;20660;-86
2021/05/17 08:57:02;;;;;;;1.90;0.83;;;14.90;99.40;;;;;;5065210;28;20640;-86
2021/05/17 08:59:31;;;;;;;1.10;0.50;;;14.80;98.30;;;;;;5066052;28;20631;-87
2021/05/17 09:01:57;;;;;;;1.47;0.40;;;15.00;98.60;;;;;;5064174;28;21111;-85
2021/05/17 09:04:25;;;;;;;0.93;0.50;;;15.30;98.30;;;;;;5061888;28;20688;-86
2021/05/17 09:06:54;;;;;;;0.93;0.50;;;15.30;99.50;;;;;;5067037;28;20664;-85
2021/05/17 09:09:26;;;;;;;0.97;0.40;;;14.80;98.30;;;;;;5065435;28;20681;-86
2021/05/17 09:11:55;;;;;;;1.40;0.60;;;14.60;99.00;;;;;;5079655;28;20623;-85
2021/05/17 09:14:22;;;;;;;1.33;0.40;;;14.60;99.90;;;;;;5074016;28;20673;-87
2021/05/17 09:16:56;;;;;;;1.97;0.90;;;14.40;99.90;;;;;;5057542;28;20649;-86
2021/05/17 09:19:24;;;;;;;1.57;0.63;;;14.70;99.90;;;;;;5065739;28;20635;-86
2021/05/17 09:22:13;;;;;;;3.60;1.00;;;14.90;99.90;;;;;;5062999;28;20653;-85
2021/05/17 09:24:50;;;;;;;0.70;0.50;;;14.80;99.90;;;;;;5060729;28;20700;-86
2021/05/17 09:27:19;;;;;;;1.13;0.60;;;15.00;99.90;;;;;;5064307;28;21537;-85
2021/05/17 09:29:49;;;;;;;4.33;0.93;;;14.90;99.90;;;;;;5067595;28;21193;-86
2021/05/17 09:32:22;;;;;;;0.90;0.50;;;14.80;99.90;;;;;;5065818;28;20633;-85
2021/05/17 09:35:00;;;;;;;1.57;0.67;;;15.10;99.90;;;;;;5057438;28;20641;-85
2021/05/17 09:37:27;;;;;;;1.20;0.50;;;15.30;99.90;;;;;;5057830;28;22342;-85
2021/05/17 09:39:55;;;;;;;2.00;0.50;;;15.30;99.90;;;;;;5060958;28;20641;-86
2021/05/17 09:42:24;;;;;;;2.30;0.50;;;15.40;99.90;;;;;;5062582;28;20664;-86
2021/05/17 09:44:53;;;;;;;3.63;0.87;;;15.50;99.70;;;;;;5064778;28;20680;-85
2021/05/17 09:47:22;;;;;;;0.90;0.67;;;15.00;99.60;;;;;;5060369;28;20985;-86
2021/05/17 09:49:51;;;;;;;0.90;0.40;;;14.70;99.90;;;;;;5067615;28;20629;-86
2021/05/17 09:52:19;;;;;;;3.90;0.77;;;14.60;99.90;;;;;;5069345;28;21202;-86
2021/05/17 09:54:47;;;;;;;1.37;0.50;;;14.60;99.90;;;;;;5060366;28;20715;-84
2021/05/17 09:57:16;;;;;;;0.70;0.40;;;14.20;99.90;;;;;;5061501;28;20676;-86
2021/05/17 09:59:44;;;;;;;1.50;0.40;;;14.20;99.90;;;;;;5061937;28;20636;-87
2021/05/17 10:02:31;;;;;;;1.60;0.50;;;14.40;99.90;;;;;;5065815;28;20635;-87
2021/05/17 10:04:58;;;;;;;0.93;0.40;;;14.40;99.90;;;;;;5057761;28;20703;-88
2021/05/17 10:07:25;;;;;;;1.70;0.50;;;14.70;99.90;;;;;;5062076;28;20737;-88
2021/05/17 10:09:52;;;;;;;1.83;0.50;;;14.90;99.90;;;;;;5062565;28;20621;-87
2021/05/17 10:12:19;;;;;;;1.80;0.67;;;14.90;99.90;;;;;;5065348;28;20634;-88
2021/05/17 10:14:46;;;;;;;1.10;0.50;;;15.10;99.90;;;;;;5064264;28;20663;-87
2021/05/17 10:17:13;;;;;;;1.73;0.50;;;15.30;99.90;;;;;;5062303;28;20596;-86
2021/05/17 10:19:41;;;;;;;1.43;0.50;;;15.10;99.90;;;;;;5063233;28;20690;-86
2021/05/17 10:22:09;;;;;;;1.10;0.50;;;15.40;99.90;;;;;;5060680;28;20621;-85
2021/05/17 10:24:35;;;;;;;0.80;0.50;;;15.00;99.90;;;;;;5060682;28;20672;-87
2021/05/17 10:27:05;;;;;;;0.80;0.60;;;15.10;99.90;;;;;;5066802;28;20598;-87
2021/05/17 10:29:33;;;;;;;1.37;0.57;;;15.20;99.90;;;;;;5063172;28;20647;-87
2021/05/17 10:32:00;;;;;;;1.30;0.70;;;15.30;99.90;;;;;;5059225;28;20640;-87
2021/05/17 10:34:28;;;;;;;6.40;0.90;;;15.20;99.90;;;;;;5058653;28;20716;-87
2021/05/17 10:36:57;;;;;;;1.47;0.50;;;15.30;99.90;;;;;;5070516;28;20733;-87
2021/05/17 10:39:33;;;;;;;2.30;0.80;;;15.10;99.90;;;;;;5075203;28;20668;-87
2021/05/17 10:42:12;;;;;;;1.17;0.50;;;14.90;99.90;;;;;;5077317;28;20595;-85
2021/05/17 10:48:10;;;;;;;5.73;0.80;;;14.20;99.90;;;;;;5080873;28;20615;-89
2021/05/17 10:50:37;;;;;;;2.80;0.60;;;13.50;99.90;;;;;;5080732;28;20628;-89
2021/05/17 10:53:05;;;;;;;1.87;0.60;;;13.50;99.90;;;;;;5091763;28;20628;-88
2021/05/17 10:55:35;;;;;;;0.50;0.40;;;13.30;99.90;;;;;;5083641;28;20653;-89
2021/05/17 10:58:12;;;;;;;1.57;0.40;;;13.20;99.90;;;;;;5073451;28;20621;-88
2021/05/17 11:00:38;;;;;;;0.63;0.40;;;13.40;99.90;;;;;;5070373;28;20633;-88
2021/05/17 11:03:11;;;;;;;1.43;0.70;;;13.80;99.90;;;;;;5074923;28;20616;-90
2021/05/17 11:05:39;;;;;;;1.83;0.50;;;14.70;99.90;;;;;;5067065;28;20696;-88
2021/05/17 11:08:08;;;;;;;1.03;0.57;;;15.00;99.90;;;;;;5072540;28;20612;-89
2021/05/17 11:10:37;;;;;;;1.40;0.70;;;15.40;99.90;;;;;;5072112;28;20632;-88
2021/05/17 11:13:10;;;;;;;1.33;0.50;;;15.80;99.90;;;;;;5070065;28;20627;-89
2021/05/17 11:15:57;;;;;;;1.23;0.50;;;15.70;99.90;;;;;;5067408;28;20813;-89
2021/05/17 11:18:43;;;;;;;1.10;0.37;;;15.40;99.90;;;;;;5073960;28;20648;-87
2021/05/17 11:21:29;;;;;;;1.97;0.70;;;16.00;99.90;;;;;;5080453;28;21229;-88
2021/05/17 11:24:05;;;;;;;3.13;0.70;;;16.10;99.90;;;;;;5080787;28;20668;-88
2021/05/17 11:26:52;;;;;;;2.60;0.80;;;16.40;99.90;;;;;;5078837;28;20678;-88
2021/05/17 11:29:34;;;;;;;0.80;0.57;;;17.30;99.00;;;;;;5092120;28;20625;-88
2021/05/17 11:32:34;;;;;;;2.10;1.30;;;16.80;98.10;;;;;;5078524;28;20613;-89
2021/05/17 11:35:02;;;;;;;1.47;0.50;;;16.50;99.40;;;;;;5077007;28;20663;-87
2021/05/17 11:37:30;;;;;;;1.37;0.67;;;16.60;98.20;;;;;;5066911;28;20732;-89
2021/05/17 11:40:19;;;;;;;1.97;0.60;;;16.70;98.90;;;;;;5072914;28;21008;-89
2021/05/17 11:42:46;;;;;;;1.53;0.60;;;16.70;99.90;;;;;;5079996;28;20671;-88
2021/05/17 11:45:23;;;;;;;1.03;0.40;;;16.50;98.20;;;;;;5076060;28;20684;-88
2021/05/17 11:47:52;;;;;;;0.50;0.37;;;15.80;99.90;;;;;;5079085;28;20642;-91
2021/05/17 11:50:21;;;;;;;4.27;0.90;;;15.10;99.90;;;;;;5081099;28;20625;-88
2021/05/17 11:52:49;;;;;;;1.67;0.60;;;13.50;99.90;;;;;;5072548;28;20632;-89
2021/05/17 11:55:17;;;;;;;0.70;0.60;;;12.90;99.90;;;;;;5073610;28;20649;-89
2021/05/17 11:57:45;;;;;;;1.47;1.00;;;12.80;99.90;;;;;;5073615;28;21269;-90
2021/05/17 12:00:13;;;;;;;0.60;0.40;;;13.10;99.90;;;;;;5073894;28;20659;-90
2021/05/17 12:02:44;;;;;;;1.10;0.60;;;13.50;99.90;;;;;;5067425;28;20687;-90
2021/05/17 12:05:11;;;;;;;1.13;0.60;;;13.90;99.90;;;;;;5062714;28;20669;-90
2021/05/17 12:07:43;;;;;;;1.10;0.60;;;14.50;99.90;;;;;;5063080;28;20634;-90
2021/05/17 12:10:11;;;;;;;1.13;0.40;;;15.20;99.90;;;;;;5066996;28;20621;-90
2021/05/17 12:12:39;;;;;;;3.90;1.50;;;16.10;99.90;;;;;;5067326;28;20661;-91
2021/05/17 12:15:10;;;;;;;1.37;0.60;;;16.80;99.90;;;;;;5070581;28;20637;-89
2021/05/17 12:17:38;;;;;;;0.80;0.40;;;17.30;99.90;;;;;;5063754;28;20666;-90
2021/05/17 12:20:07;;;;;;;1.07;0.53;;;17.60;99.90;;;;;;5072013;28;20688;-89
2021/05/17 12:22:37;;;;;;;1.33;0.40;;;16.80;99.90;;;;;;5067556;28;20659;-90
2021/05/17 12:25:07;;;;;;;1.00;0.70;;;16.40;99.90;;;;;;5064559;28;21485;-89
2021/05/17 12:27:40;;;;;;;0.70;0.50;;;15.70;99.90;;;;;;5073879;28;20629;-89
2021/05/17 12:30:09;;;;;;;0.50;0.50;;;15.50;99.90;;;;;;5077633;28;20708;-89
2021/05/17 12:32:43;;;;;;;0.80;0.37;;;15.20;99.90;;;;;;5065582;28;20632;-88
2021/05/17 12:35:12;;;;;;;2.53;0.40;;;15.90;99.90;;;;;;5102753;27;20679;-88
2021/05/17 12:37:42;;;;;;;0.50;0.33;;;16.80;99.90;;;;;;5072131;28;20741;-89
2021/05/17 12:40:33;;;;;;;2.20;0.50;;;16.20;99.90;;;;;;5079852;28;20643;-89
2021/05/17 12:43:12;;;;;;;0.50;0.40;;;17.00;99.90;;;;;;5071180;28;20636;-89
2021/05/17 12:45:42;;;;;;;1.00;0.50;;;18.40;96.50;;;;;;5065614;28;20669;-89
2021/05/17 12:48:17;;;;;;;0.57;0.33;;;18.80;97.10;;;;;;5070371;28;20635;-90
2021/05/17 12:50:44;;;;;;;0.50;0.30;;;18.40;96.20;;;;;;5067616;28;20639;-89
2021/05/17 12:53:14;;;;;;;0.93;0.50;;;17.70;95.10;;;;;;5065179;28;20711;-91
2021/05/17 12:55:42;;;;;;;0.70;0.40;;;18.40;95.50;;;;;;5071509;28;20649;-91
2021/05/17 12:58:12;;;;;;;0.60;0.40;;;19.70;93.10;;;;;;5059820;28;20655;-89
2021/05/17 13:00:45;;;;;;;3.03;0.80;;;19.20;92.30;;;;;;5070916;28;20620;-87
2021/05/17 13:03:14;;;;;;;0.90;0.50;;;19.80;91.60;;;;;;5066354;28;20712;-87
2021/05/17 13:06:10;;;;;;;0.77;0.30;;;20.10;89.50;;;;;;5063335;28;20680;-88
2021/05/17 13:08:52;;;;;;;1.37;0.50;;;19.20;90.50;;;;;;5026729;28;20632;-88
2021/05/17 13:11:32;;;;;;;0.90;0.40;;;17.90;91.40;;;;;;5058566;28;20720;-88
2021/05/17 13:14:05;;;;;;;1.00;0.40;;;17.60;93.30;;;;;;5066251;28;20636;-88
2021/05/17 13:16:37;;;;;;;0.67;0.40;;;18.20;92.50;;;;;;5057398;28;20642;-88
2021/05/17 13:30:43;;;;;;;0.80;0.40;;;19.30;88.50;;;;;;5063247;28;20601;-88
2021/05/17 13:33:29;;;;;;;2.00;0.57;;;20.00;88.00;;;;;;5068199;28;20613;-87